createdAt,value
2022-11-09T00:01:04.603Z,100386.91
2022-11-09T00:03:32.070Z,100381.91
2022-11-09T00:06:01.063Z,100388.22
2022-11-09T00:08:28.914Z,100378.47
2022-11-09T00:11:02.632Z,100384.53
2022-11-09T00:13:29.879Z,100377.44
2022-11-09T00:16:00.379Z,100389.69
2022-11-09T00:18:30.495Z,100382.50
2022-11-09T00:20:57.749Z,100385.22
2022-11-09T00:23:25.093Z,100378.38
2022-11-09T00:25:52.364Z,100369.81
2022-11-09T00:28:19.585Z,100371.38
2022-11-09T00:30:47.868Z,100365.97
2022-11-09T00:33:16.596Z,100372.19
2022-11-09T00:35:44.048Z,100373.97
2022-11-09T00:38:11.250Z,100373.56
2022-11-09T00:40:38.855Z,100375.44
2022-11-09T00:43:06.132Z,100376.25
2022-11-09T00:45:33.256Z,100372.69
2022-11-09T00:48:00.380Z,100384.63
2022-11-09T00:50:27.844Z,100385.44
2022-11-09T00:52:55.333Z,100383.88
2022-11-09T00:55:24.031Z,100393.63
2022-11-09T00:57:53.442Z,100390.03
2022-11-09T01:00:24.476Z,100390.84
2022-11-09T01:02:53.280Z,100391.81
2022-11-09T01:05:20.519Z,100389.59
2022-11-09T01:07:50.030Z,100382.72
2022-11-09T01:10:17.398Z,100364.13
2022-11-09T01:12:46.861Z,100359.56
2022-11-09T01:15:15.489Z,100348.84
2022-11-09T01:17:42.731Z,100354.66
2022-11-09T01:20:11.350Z,100346.63
2022-11-09T01:22:38.472Z,100351.72
2022-11-09T01:25:06.854Z,100341.91
2022-11-09T01:27:34.105Z,100343.44
2022-11-09T01:30:01.222Z,100340.09
2022-11-09T01:32:32.233Z,100346.22
2022-11-09T01:34:59.439Z,100345.34
2022-11-09T01:37:26.677Z,100345.97
2022-11-09T01:39:53.845Z,100344.94
2022-11-09T01:42:25.907Z,100344.84
2022-11-09T01:45:18.029Z,100336.34
2022-11-09T01:48:41.026Z,100336.66
2022-11-09T01:51:25.219Z,100338.44
2022-11-09T01:54:12.290Z,100338.53
2022-11-09T01:56:40.501Z,100337.56
2022-11-09T01:59:17.341Z,100335.91
2022-11-09T02:01:45.741Z,100333.69
2022-11-09T02:04:41.085Z,100329.34
2022-11-09T02:07:11.424Z,100325.03
2022-11-09T02:10:12.503Z,100326.00
2022-11-09T02:12:40.632Z,100330.28
2022-11-09T02:15:10.650Z,100326.59
2022-11-09T02:17:41.237Z,100321.25
2022-11-09T02:20:15.564Z,100313.31
2022-11-09T02:22:42.911Z,100309.72
2022-11-09T02:25:14.173Z,100317.56
2022-11-09T02:27:44.253Z,100315.53
2022-11-09T02:30:13.876Z,100316.47
2022-11-09T02:32:41.237Z,100310.47
2022-11-09T02:35:09.887Z,100296.69
2022-11-09T02:37:50.100Z,100300.00
2022-11-09T02:40:34.046Z,100305.81
2022-11-09T02:43:02.207Z,100311.84
2022-11-09T02:45:29.423Z,100314.47
2022-11-09T02:47:56.708Z,100314.78
2022-11-09T02:50:24.119Z,100320.34
2022-11-09T02:52:51.348Z,100328.44
2022-11-09T02:55:19.082Z,100323.38
2022-11-09T02:57:46.613Z,100329.84
2022-11-09T03:00:16.622Z,100325.81
2022-11-09T03:02:45.911Z,100338.25
2022-11-09T03:05:14.531Z,100331.94
2022-11-09T03:07:43.767Z,100331.88
2022-11-09T03:10:12.218Z,100326.38
2022-11-09T03:12:39.592Z,100328.28
2022-11-09T03:15:11.501Z,100326.47
2022-11-09T03:17:42.944Z,100322.06
2022-11-09T03:20:11.410Z,100325.34
2022-11-09T03:22:39.806Z,100322.81
2022-11-09T03:25:08.117Z,100323.69
2022-11-09T03:27:35.371Z,100319.28
2022-11-09T03:30:03.515Z,100321.81
2022-11-09T03:32:31.191Z,100321.66
2022-11-09T03:34:58.838Z,100325.13
2022-11-09T03:37:26.201Z,100325.03
2022-11-09T03:39:53.518Z,100316.34
2022-11-09T03:42:20.781Z,100314.47
2022-11-09T03:44:48.049Z,100315.19
2022-11-09T03:47:15.372Z,100308.84
2022-11-09T03:49:42.600Z,100310.63
2022-11-09T03:52:09.790Z,100310.63
2022-11-09T03:54:37.117Z,100311.53
2022-11-09T03:57:04.349Z,100306.47
2022-11-09T03:59:31.552Z,100317.00
2022-11-09T04:01:58.809Z,100318.81
2022-11-09T04:04:26.078Z,100316.50
2022-11-09T04:06:53.361Z,100332.38
2022-11-09T04:09:20.647Z,100334.75
2022-11-09T04:11:47.807Z,100331.16
2022-11-09T04:14:14.945Z,100333.53
2022-11-09T04:16:42.212Z,100323.81
2022-11-09T04:19:09.548Z,100335.19
2022-11-09T04:21:36.715Z,100328.13
2022-11-09T04:24:04.317Z,100341.38
2022-11-09T04:26:31.592Z,100340.59
2022-11-09T04:28:58.736Z,100336.00
2022-11-09T04:31:28.141Z,100337.66
2022-11-09T04:33:55.794Z,100340.28
2022-11-09T04:36:23.177Z,100340.44
2022-11-09T04:38:50.555Z,100327.81
2022-11-09T04:41:17.967Z,100332.88
2022-11-09T04:43:45.175Z,100328.72
2022-11-09T04:46:12.384Z,100319.06
2022-11-09T04:48:39.764Z,100334.88
2022-11-09T04:51:10.481Z,100332.25
2022-11-09T04:53:38.888Z,100331.94
2022-11-09T04:56:07.975Z,100336.00
2022-11-09T04:58:35.529Z,100331.69
2022-11-09T05:01:09.330Z,100317.44
2022-11-09T05:03:37.112Z,100321.59
2022-11-09T05:06:23.688Z,100325.03
2022-11-09T05:08:52.112Z,100332.22
2022-11-09T05:11:19.337Z,100336.84
2022-11-09T05:13:46.801Z,100340.50
2022-11-09T05:16:14.843Z,100342.31
2022-11-09T05:18:42.018Z,100351.06
2022-11-09T05:21:09.678Z,100340.59
2022-11-09T05:23:55.330Z,100339.63
2022-11-09T05:26:22.910Z,100340.41
2022-11-09T05:28:50.052Z,100319.22
2022-11-09T05:31:17.195Z,100320.97
2022-11-09T05:33:44.631Z,100324.28
2022-11-09T05:36:11.808Z,100324.72
2022-11-09T05:38:38.949Z,100325.38
2022-11-09T05:41:06.161Z,100327.09
2022-11-09T05:43:33.437Z,100330.53
2022-11-09T05:46:05.453Z,100322.75
2022-11-09T05:48:34.008Z,100331.53
2022-11-09T05:51:06.713Z,100342.22
2022-11-09T05:53:33.958Z,100340.44
2022-11-09T05:56:09.315Z,100343.13
2022-11-09T05:58:38.768Z,100351.22
2022-11-09T06:01:09.961Z,100345.09
2022-11-09T06:03:37.456Z,100342.47
2022-11-09T06:06:09.095Z,100338.81
2022-11-09T06:08:36.989Z,100349.28
2022-11-09T06:11:09.381Z,100345.00
2022-11-09T06:13:36.956Z,100340.75
2022-11-09T06:16:06.374Z,100333.56
2022-11-09T06:18:36.301Z,100342.22
2022-11-09T06:21:06.004Z,100350.22
2022-11-09T06:23:34.346Z,100346.75
2022-11-09T06:26:10.351Z,100342.22
2022-11-09T06:28:42.358Z,100346.75
2022-11-09T06:31:15.816Z,100345.81
2022-11-09T06:33:43.477Z,100354.69
2022-11-09T06:36:11.526Z,100367.84
2022-11-09T06:38:39.264Z,100368.56
2022-11-09T06:41:06.737Z,100372.00
2022-11-09T06:43:34.016Z,100374.06
2022-11-09T06:46:05.318Z,100370.63
2022-11-09T06:48:32.557Z,100358.25
2022-11-09T06:51:05.384Z,100358.59
2022-11-09T06:53:34.934Z,100365.66
2022-11-09T06:56:05.190Z,100369.22
2022-11-09T06:58:32.853Z,100377.16
2022-11-09T07:01:00.397Z,100375.47
2022-11-09T07:03:27.840Z,100374.97
2022-11-09T07:05:55.033Z,100365.22
2022-11-09T07:08:22.378Z,100361.84
2022-11-09T07:10:49.631Z,100362.78
2022-11-09T07:13:16.902Z,100368.25
2022-11-09T07:15:44.382Z,100364.88
2022-11-09T07:18:13.159Z,100372.19
2022-11-09T07:20:40.439Z,100377.59
2022-11-09T07:23:07.677Z,100380.44
2022-11-09T07:25:35.108Z,100386.81
2022-11-09T07:28:08.512Z,100390.34
2022-11-09T07:30:39.203Z,100392.97
2022-11-09T07:33:18.023Z,100391.00
2022-11-09T07:35:46.701Z,100395.19
2022-11-09T07:38:19.647Z,100392.56
2022-11-09T07:40:47.000Z,100390.63
2022-11-09T07:43:14.354Z,100390.53
2022-11-09T07:45:43.054Z,100399.19
2022-11-09T07:48:12.404Z,100406.16
2022-11-09T07:50:41.324Z,100400.50
2022-11-09T07:53:13.667Z,100405.34
2022-11-09T07:55:41.836Z,100408.69
2022-11-09T07:58:16.573Z,100408.03
2022-11-09T08:00:44.561Z,100406.31
2022-11-09T08:03:12.293Z,100423.75
2022-11-09T08:05:39.838Z,100418.97
2022-11-09T08:08:11.389Z,100416.38
2022-11-09T08:10:39.739Z,100423.44
2022-11-09T08:13:13.469Z,100442.38
2022-11-09T08:15:42.344Z,100450.56
2022-11-09T08:18:18.736Z,100436.38
2022-11-09T08:20:47.065Z,100429.28
2022-11-09T08:23:17.874Z,100430.69
2022-11-09T08:25:45.987Z,100430.09
2022-11-09T08:28:16.134Z,100424.22
2022-11-09T08:30:45.415Z,100436.16
2022-11-09T08:33:13.634Z,100433.47
2022-11-09T08:35:40.846Z,100435.50
2022-11-09T08:38:07.975Z,100434.28
2022-11-09T08:40:35.207Z,100433.16
2022-11-09T08:43:07.755Z,100437.09
2022-11-09T08:45:38.746Z,100433.56
2022-11-09T08:48:08.166Z,100433.56
2022-11-09T08:50:37.144Z,100430.38
2022-11-09T08:53:05.592Z,100431.28
2022-11-09T08:55:33.029Z,100428.41
2022-11-09T08:58:03.764Z,100435.53
2022-11-09T09:00:31.422Z,100438.16
2022-11-09T09:02:59.100Z,100431.28
2022-11-09T09:05:26.680Z,100436.78
2022-11-09T09:07:53.955Z,100438.31
2022-11-09T09:10:21.182Z,100436.53
2022-11-09T09:12:48.486Z,100440.84
2022-11-09T09:15:15.855Z,100438.97
2022-11-09T09:17:43.207Z,100445.22
2022-11-09T09:20:11.132Z,100443.22
2022-11-09T09:22:38.465Z,100436.19
2022-11-09T09:25:06.934Z,100432.59
2022-11-09T09:27:34.220Z,100426.63
2022-11-09T09:30:01.487Z,100436.38
2022-11-09T09:32:29.721Z,100439.22
2022-11-09T09:34:57.078Z,100437.84
2022-11-09T09:37:24.356Z,100444.13
2022-11-09T09:39:51.626Z,100451.91
2022-11-09T09:42:27.692Z,100460.28
2022-11-09T09:45:24.819Z,100461.81
2022-11-09T09:48:36.966Z,100461.09
2022-11-09T09:51:32.765Z,100467.38
2022-11-09T09:54:16.416Z,100455.13
2022-11-09T09:56:47.399Z,100458.72
2022-11-09T09:59:43.951Z,100451.75
2022-11-09T10:02:22.295Z,100463.38
2022-11-09T10:04:50.096Z,100473.69
2022-11-09T10:07:49.697Z,100469.38
2022-11-09T10:10:44.578Z,100473.38
2022-11-09T10:14:07.972Z,100474.03
2022-11-09T10:17:16.513Z,100468.88
2022-11-09T10:20:15.595Z,100467.38
2022-11-09T10:23:42.586Z,100458.72
2022-11-09T10:26:28.220Z,100458.91
2022-11-09T10:29:16.159Z,100471.91
2022-11-09T10:31:47.667Z,100460.59
2022-11-09T10:34:29.910Z,100467.56
2022-11-09T10:37:41.164Z,100467.63
2022-11-09T10:40:35.288Z,100468.38
2022-11-09T10:43:21.254Z,100471.75
2022-11-09T10:46:09.172Z,100470.09
2022-11-09T10:48:55.647Z,100467.47
2022-11-09T10:51:48.049Z,100454.13
2022-11-09T10:54:37.998Z,100456.75
2022-11-09T10:57:25.630Z,100455.13
2022-11-09T11:00:19.189Z,100453.50
2022-11-09T11:03:36.483Z,100455.19
2022-11-09T11:06:22.054Z,100458.31
2022-11-09T11:09:07.578Z,100452.25
2022-11-09T11:12:17.581Z,100440.84
2022-11-09T11:15:26.286Z,100441.94
2022-11-09T11:18:23.456Z,100441.50
2022-11-09T11:21:21.719Z,100437.75
2022-11-09T11:24:20.970Z,100434.06
2022-11-09T11:27:34.820Z,100424.72
2022-11-09T11:30:37.374Z,100421.84
2022-11-09T11:33:23.925Z,100418.50
2022-11-09T11:36:30.823Z,100404.50
2022-11-09T11:39:58.096Z,100401.31
2022-11-09T11:43:29.521Z,100406.72
2022-11-09T11:46:34.287Z,100404.34
2022-11-09T11:50:02.750Z,100395.63
2022-11-09T11:53:23.453Z,100388.16
2022-11-09T11:56:35.073Z,100379.50
2022-11-09T12:00:10.656Z,100374.25
2022-11-09T12:04:06.479Z,100364.41
2022-11-09T12:07:06.215Z,100359.38
2022-11-09T12:10:25.096Z,100355.69
2022-11-09T12:13:44.492Z,100356.38
2022-11-09T12:17:11.682Z,100346.13
2022-11-09T12:20:16.452Z,100349.78
2022-11-09T12:23:39.131Z,100350.53
2022-11-09T12:27:32.071Z,100354.06
2022-11-09T12:30:28.334Z,100361.31
2022-11-09T12:33:43.380Z,100349.69
2022-11-09T12:36:57.188Z,100339.03
2022-11-09T12:39:54.713Z,100348.03
2022-11-09T12:42:58.076Z,100340.09
2022-11-09T12:45:44.447Z,100337.09
2022-11-09T12:48:35.316Z,100343.97
2022-11-09T12:51:22.664Z,100332.50
2022-11-09T12:54:11.654Z,100342.19
2022-11-09T12:57:27.776Z,100353.59
2022-11-09T13:00:35.440Z,100347.44
2022-11-09T13:03:30.542Z,100351.56
2022-11-09T13:06:27.666Z,100343.38
2022-11-09T13:09:16.582Z,100338.44
2022-11-09T13:12:27.213Z,100344.31
2022-11-09T13:15:30.677Z,100332.22
2022-11-09T13:18:51.352Z,100336.88
2022-11-09T13:21:39.571Z,100334.00
2022-11-09T13:24:51.790Z,100339.91
2022-11-09T13:27:47.065Z,100337.63
2022-11-09T13:30:43.789Z,100337.38
2022-11-09T13:33:31.980Z,100336.16
2022-11-09T13:36:19.867Z,100320.91
2022-11-09T13:39:32.901Z,100318.66
2022-11-09T13:42:36.618Z,100329.56
2022-11-09T13:45:37.327Z,100329.59
2022-11-09T13:48:38.983Z,100331.22
2022-11-09T13:51:47.422Z,100331.22
2022-11-09T13:54:37.397Z,100330.59
2022-11-09T13:57:24.780Z,100332.53
2022-11-09T14:00:25.024Z,100336.06
2022-11-09T14:03:29.503Z,100322.81
2022-11-09T14:06:15.228Z,100313.38
2022-11-09T14:09:02.889Z,100310.75
2022-11-09T14:12:42.047Z,100311.41
2022-11-09T14:16:15.146Z,100320.28
2022-11-09T14:19:17.583Z,100319.19
2022-11-09T14:22:03.155Z,100319.63
2022-11-09T14:24:49.225Z,100328.28
2022-11-09T14:27:35.234Z,100320.66
2022-11-09T14:30:28.928Z,100337.31
2022-11-09T14:33:34.342Z,100335.09
2022-11-09T14:36:22.241Z,100336.00
2022-11-09T14:39:34.221Z,100327.38
2022-11-09T14:42:23.613Z,100328.44
2022-11-09T14:45:16.504Z,100336.16
2022-11-09T14:48:02.457Z,100328.06
2022-11-09T14:50:50.370Z,100328.06
2022-11-09T14:53:38.956Z,100322.06
2022-11-09T14:56:25.377Z,100312.25
2022-11-09T14:59:20.205Z,100308.72
2022-11-09T15:02:12.227Z,100314.88
2022-11-09T15:05:04.364Z,100311.25
2022-11-09T15:07:50.465Z,100315.34
2022-11-09T15:10:36.782Z,100318.31
2022-11-09T15:13:38.129Z,100319.16
2022-11-09T15:16:29.716Z,100310.53
2022-11-09T15:20:01.010Z,100307.00
2022-11-09T15:23:04.551Z,100308.84
2022-11-09T15:25:50.478Z,100315.72
2022-11-09T15:28:51.382Z,100311.53
2022-11-09T15:31:37.200Z,100319.47
2022-11-09T15:34:29.076Z,100323.47
2022-11-09T15:37:43.054Z,100318.31
2022-11-09T15:40:28.997Z,100316.78
2022-11-09T15:43:14.883Z,100317.50
2022-11-09T15:46:01.469Z,100306.13
2022-11-09T15:48:47.296Z,100299.81
2022-11-09T15:51:33.228Z,100302.69
2022-11-09T15:54:19.816Z,100306.84
2022-11-09T15:57:05.593Z,100330.09
2022-11-09T15:59:51.910Z,100324.53
2022-11-09T16:02:37.845Z,100315.06
2022-11-09T16:05:27.645Z,100308.19
2022-11-09T16:08:13.577Z,100308.34
2022-11-09T16:11:05.891Z,100312.75
2022-11-09T16:13:51.826Z,100317.16
2022-11-09T16:16:37.639Z,100317.91
2022-11-09T16:19:23.570Z,100313.59
2022-11-09T16:25:16.344Z,100308.75
2022-11-09T16:28:02.333Z,100311.28
2022-11-09T16:30:48.243Z,100314.63
2022-11-09T16:33:35.089Z,100330.34
2022-11-09T16:36:25.460Z,100319.72
2022-11-09T16:39:18.393Z,100321.69
2022-11-09T16:42:09.098Z,100331.25
2022-11-09T16:45:00.078Z,100329.47
2022-11-09T16:47:52.070Z,100333.97
2022-11-09T16:50:37.833Z,100335.59
2022-11-09T16:53:26.946Z,100347.63
2022-11-09T16:56:13.649Z,100348.44
2022-11-09T16:59:00.507Z,100339.78
2022-11-09T17:01:58.513Z,100337.97
2022-11-09T17:04:44.771Z,100341.41
2022-11-09T17:07:31.889Z,100337.63
2022-11-09T17:10:17.685Z,100339.38
2022-11-09T17:13:03.257Z,100345.50
2022-11-09T17:15:54.347Z,100336.00
2022-11-09T17:18:42.732Z,100341.34
2022-11-09T17:21:29.977Z,100339.47
2022-11-09T17:24:16.251Z,100335.69
2022-11-09T17:27:02.268Z,100338.13
2022-11-09T17:29:47.871Z,100348.63
2022-11-09T17:32:34.255Z,100351.22
2022-11-09T17:35:20.298Z,100358.25
2022-11-09T17:38:05.891Z,100358.41
2022-11-09T17:40:51.680Z,100359.34
2022-11-09T17:43:40.704Z,100370.72
2022-11-09T17:46:26.526Z,100377.91
2022-11-09T17:49:12.619Z,100375.38
2022-11-09T17:51:58.410Z,100380.28
2022-11-09T17:54:44.805Z,100376.84
2022-11-09T17:57:32.372Z,100383.72
2022-11-09T18:00:19.158Z,100394.84
2022-11-09T18:03:04.735Z,100394.66
2022-11-09T18:05:50.635Z,100403.44
2022-11-09T18:08:36.643Z,100401.72
2022-11-09T18:11:22.534Z,100399.19
2022-11-09T18:14:08.380Z,100390.59
2022-11-09T18:16:54.066Z,100387.88
2022-11-09T18:19:40.041Z,100394.84
2022-11-09T18:22:25.764Z,100392.22
2022-11-09T18:25:12.127Z,100395.56
2022-11-09T18:27:58.066Z,100396.41
2022-11-09T18:30:43.628Z,100395.56
2022-11-09T18:33:30.808Z,100395.66
2022-11-09T18:36:21.111Z,100403.25
2022-11-09T18:39:07.328Z,100402.59
2022-11-09T18:41:54.589Z,100409.59
2022-11-09T18:44:40.632Z,100408.66
2022-11-09T18:47:26.142Z,100409.50
2022-11-09T18:50:12.052Z,100408.50
2022-11-09T18:52:58.051Z,100411.13
2022-11-09T18:55:43.585Z,100404.09
2022-11-09T18:58:31.389Z,100411.13
2022-11-09T19:01:17.333Z,100406.53
2022-11-09T19:04:03.129Z,100407.38
2022-11-09T19:06:49.258Z,100409.16
2022-11-09T19:09:35.651Z,100410.28
2022-11-09T19:12:21.562Z,100413.75
2022-11-09T19:15:08.124Z,100408.66
2022-11-09T19:17:54.416Z,100405.22
2022-11-09T19:20:40.102Z,100411.03
2022-11-09T19:23:31.295Z,100409.25
2022-11-09T19:26:23.964Z,100411.13
2022-11-09T19:29:13.018Z,100408.50
2022-11-09T19:31:59.332Z,100414.47
2022-11-09T19:34:46.629Z,100415.34
2022-11-09T19:37:32.458Z,100421.09
2022-11-09T19:40:18.564Z,100421.75
2022-11-09T19:43:04.209Z,100419.38
2022-11-09T19:45:50.656Z,100419.38
2022-11-09T19:48:37.151Z,100411.44
2022-11-09T19:51:24.218Z,100412.69
2022-11-09T19:54:12.825Z,100413.47
2022-11-09T19:56:58.564Z,100418.47
2022-11-09T19:59:45.695Z,100420.28
2022-11-09T20:02:31.686Z,100421.25
2022-11-09T20:05:17.854Z,100424.53
2022-11-09T20:08:05.537Z,100417.50
2022-11-09T20:10:54.295Z,100414.78
2022-11-09T20:13:43.966Z,100415.22
2022-11-09T20:16:33.086Z,100417.00
2022-11-09T20:19:19.976Z,100425.84
2022-11-09T20:22:07.079Z,100425.84
2022-11-09T20:24:59.026Z,100429.84
2022-11-09T20:27:45.611Z,100427.06
2022-11-09T20:30:44.767Z,100432.22
2022-11-09T20:33:32.748Z,100423.69
2022-11-09T20:36:22.427Z,100427.50
2022-11-09T20:39:11.425Z,100422.41
2022-11-09T20:42:00.943Z,100419.88
2022-11-09T20:44:49.837Z,100416.44
2022-11-09T20:48:03.212Z,100419.16
2022-11-09T20:50:44.449Z,100426.75
2022-11-09T20:53:32.304Z,100433.69
2022-11-09T20:56:20.771Z,100426.00
2022-11-09T20:59:09.234Z,100435.44
2022-11-09T21:01:56.585Z,100426.56
2022-11-09T21:04:45.398Z,100430.34
2022-11-09T21:07:32.245Z,100426.16
2022-11-09T21:10:18.861Z,100422.59
2022-11-09T21:13:09.913Z,100423.31
2022-11-09T21:15:57.655Z,100417.09
2022-11-09T21:18:47.450Z,100427.50
2022-11-09T21:21:36.748Z,100433.28
2022-11-09T21:24:41.885Z,100431.28
2022-11-09T21:27:48.206Z,100427.31
2022-11-09T21:30:35.107Z,100436.16
2022-11-09T21:33:21.490Z,100433.47
2022-11-09T21:36:15.237Z,100440.75
2022-11-09T21:39:04.913Z,100441.63
2022-11-09T21:41:53.331Z,100446.78
2022-11-09T21:44:40.866Z,100438.03
2022-11-09T21:47:27.030Z,100438.88
2022-11-09T21:50:13.101Z,100434.50
2022-11-09T21:52:59.279Z,100443.53
2022-11-09T21:55:45.336Z,100445.66
2022-11-09T21:58:31.440Z,100444.66
2022-11-09T22:01:18.472Z,100447.13
2022-11-09T22:04:05.987Z,100439.91
2022-11-09T22:06:51.633Z,100441.88
2022-11-09T22:10:05.991Z,100438.22
2022-11-09T22:13:02.202Z,100439.75
2022-11-09T22:16:06.540Z,100431.06
2022-11-09T22:19:12.423Z,100439.75
2022-11-09T22:21:58.144Z,100441.53
2022-11-09T22:24:44.411Z,100446.88
2022-11-09T22:27:32.195Z,100444.09
2022-11-09T22:30:17.911Z,100431.06
2022-11-09T22:33:04.075Z,100431.56
2022-11-09T22:35:58.125Z,100427.16
2022-11-09T22:38:45.396Z,100432.13
2022-11-09T22:41:31.143Z,100433.84
2022-11-09T22:44:17.162Z,100438.19
2022-11-09T22:47:03.836Z,100432.94
2022-11-09T22:49:49.773Z,100430.25
2022-11-09T22:52:35.823Z,100428.06
2022-11-09T22:55:21.586Z,100437.78
2022-11-09T22:58:07.622Z,100441.22
2022-11-09T23:00:54.146Z,100442.84
2022-11-09T23:03:40.574Z,100439.41
2022-11-09T23:06:27.064Z,100429.84
2022-11-09T23:09:12.846Z,100423.69
2022-11-09T23:11:58.697Z,100437.78
2022-11-09T23:15:03.067Z,100440.22
2022-11-09T23:18:07.577Z,100443.19
2022-11-09T23:20:53.658Z,100446.72
2022-11-09T23:23:40.334Z,100445.97
2022-11-09T23:26:27.805Z,100440.00
2022-11-09T23:29:13.964Z,100446.94
2022-11-09T23:31:59.644Z,100441.72
2022-11-09T23:34:45.335Z,100427.81
2022-11-09T23:37:31.286Z,100427.81
2022-11-09T23:40:17.589Z,100427.66
2022-11-09T23:43:10.991Z,100421.59
2022-11-09T23:46:00.575Z,100432.22
2022-11-09T23:48:46.650Z,100426.91
2022-11-09T23:51:32.555Z,100425.91
2022-11-09T23:54:18.416Z,100420.47
2022-11-09T23:57:04.995Z,100423.97
2022-11-09T23:59:50.795Z,100414.56
